Terminal Aerodrome Forecast
Issued by NWS Corpus Christi, TX

Home | Current Version | Previous Version | Text Only | Print | Product List | Glossary On
Versions: 1 2 3 4 5 6 7 8 9 10 11 12 13 14 15
000
FTUS44 KCRP 041737
TAFVCT
TAF
KVCT 041737Z 0418/0518 16010KT P6SM VCSH SCT025 BKN060
      TEMPO 0418/0421 VRB15G25KT 1SM SHRA BR BKN020 OVC050
     FM042100 15011KT P6SM SCT040 BKN250
     FM050400 14004KT P6SM FEW020
     FM051000 VRB03KT 5SM BR SCT015
     FM051400 17008KT P6SM VCSH SCT025 BKN100=

USA.gov is the U.S. government's official web portal to all federal, state and local government web resources and services.